sensor_id;sensor_type;location;lat;lon;timestamp;pressure;altitude;pressure_sealevel;temperature;humidity
77626;BME280;66794;43.764;10.436;2023-07-13T00:01:43;101593.66;;;26.83;100.00
77626;BME280;66794;43.764;10.436;2023-07-13T00:04:29;101605.16;;;27.29;100.00
77626;BME280;66794;43.764;10.436;2023-07-13T00:07:15;101578.88;;;27.10;100.00
77626;BME280;66794;43.764;10.436;2023-07-13T00:10:01;101590.63;;;27.17;100.00
77626;BME280;66794;43.764;10.436;2023-07-13T00:12:48;101596.84;;;26.97;100.00
77626;BME280;66794;43.764;10.436;2023-07-13T00:15:34;101560.88;;;26.85;100.00
77626;BME280;66794;43.764;10.436;2023-07-13T00:18:21;101577.53;;;27.17;100.00
77626;BME280;66794;43.764;10.436;2023-07-13T00:21:07;101585.53;;;27.51;100.00
77626;BME280;66794;43.764;10.436;2023-07-13T00:23:53;101583.44;;;27.68;100.00
77626;BME280;66794;43.764;10.436;2023-07-13T00:26:39;101557.22;;;27.59;100.00
77626;BME280;66794;43.764;10.436;2023-07-13T00:29:26;101569.53;;;27.68;100.00
77626;BME280;66794;43.764;10.436;2023-07-13T00:32:11;101571.28;;;27.85;100.00
77626;BME280;66794;43.764;10.436;2023-07-13T00:34:57;101571.56;;;27.88;100.00
77626;BME280;66794;43.764;10.436;2023-07-13T00:37:45;101583.50;;;27.78;100.00
77626;BME280;66794;43.764;10.436;2023-07-13T00:40:31;101580.72;;;27.78;100.00
77626;BME280;66794;43.764;10.436;2023-07-13T00:43:22;101575.44;;;27.82;100.00
77626;BME280;66794;43.764;10.436;2023-07-13T00:46:15;101579.09;;;27.88;100.00
77626;BME280;66794;43.764;10.436;2023-07-13T00:49:05;101573.25;;;27.84;100.00
77626;BME280;66794;43.764;10.436;2023-07-13T00:52:06;101596.34;;;27.85;100.00
77626;BME280;66794;43.764;10.436;2023-07-13T00:54:52;101589.06;;;27.84;100.00
77626;BME280;66794;43.764;10.436;2023-07-13T00:57:38;101558.75;;;27.82;100.00
77626;BME280;66794;43.764;10.436;2023-07-13T01:00:25;101546.47;;;27.78;100.00
77626;BME280;66794;43.764;10.436;2023-07-13T01:03:11;101553.59;;;27.59;100.00
77626;BME280;66794;43.764;10.436;2023-07-13T01:05:57;101565.56;;;27.59;100.00
77626;BME280;66794;43.764;10.436;2023-07-13T01:08:46;101559.16;;;27.59;100.00
77626;BME280;66794;43.764;10.436;2023-07-13T01:11:32;101571.41;;;27.58;100.00
77626;BME280;66794;43.764;10.436;2023-07-13T01:14:18;101562.94;;;27.37;100.00
77626;BME280;66794;43.764;10.436;2023-07-13T01:17:04;101580.00;;;27.56;100.00
77626;BME280;66794;43.764;10.436;2023-07-13T01:19:50;101571.91;;;27.49;100.00
77626;BME280;66794;43.764;10.436;2023-07-13T01:22:35;101575.84;;;27.53;100.00
77626;BME280;66794;43.764;10.436;2023-07-13T01:25:21;101550.97;;;27.37;100.00
77626;BME280;66794;43.764;10.436;2023-07-13T01:28:08;101557.50;;;27.58;100.00
77626;BME280;66794;43.764;10.436;2023-07-13T01:30:58;101549.34;;;27.41;100.00
77626;BME280;66794;43.764;10.436;2023-07-13T01:33:44;101541.31;;;27.49;100.00
77626;BME280;66794;43.764;10.436;2023-07-13T01:36:30;101539.00;;;27.31;100.00
77626;BME280;66794;43.764;10.436;2023-07-13T01:39:16;101521.03;;;27.07;100.00
77626;BME280;66794;43.764;10.436;2023-07-13T01:42:02;101528.75;;;26.99;100.00
77626;BME280;66794;43.764;10.436;2023-07-13T01:44:48;101520.56;;;27.20;100.00
77626;BME280;66794;43.764;10.436;2023-07-13T01:47:34;101521.69;;;27.19;100.00
77626;BME280;66794;43.764;10.436;2023-07-13T01:50:20;101513.09;;;26.88;100.00
77626;BME280;66794;43.764;10.436;2023-07-13T01:53:06;101516.63;;;26.79;100.00
77626;BME280;66794;43.764;10.436;2023-07-13T01:55:51;101494.63;;;26.72;100.00
77626;BME280;66794;43.764;10.436;2023-07-13T01:58:37;101476.69;;;26.53;100.00
77626;BME280;66794;43.764;10.436;2023-07-13T02:01:23;101497.06;;;26.63;100.00
77626;BME280;66794;43.764;10.436;2023-07-13T02:04:09;101500.50;;;26.76;100.00
77626;BME280;66794;43.764;10.436;2023-07-13T02:06:54;101491.81;;;26.67;100.00
77626;BME280;66794;43.764;10.436;2023-07-13T02:09:41;101479.31;;;26.69;100.00
77626;BME280;66794;43.764;10.436;2023-07-13T02:12:27;101471.69;;;26.50;100.00
77626;BME280;66794;43.764;10.436;2023-07-13T02:15:13;101481.53;;;26.67;100.00
77626;BME280;66794;43.764;10.436;2023-07-13T02:17:59;101473.31;;;26.45;100.00
77626;BME280;66794;43.764;10.436;2023-07-13T02:20:45;101462.75;;;26.42;100.00
77626;BME280;66794;43.764;10.436;2023-07-13T02:23:31;101467.19;;;26.43;100.00
77626;BME280;66794;43.764;10.436;2023-07-13T02:26:16;101474.53;;;26.60;100.00
77626;BME280;66794;43.764;10.436;2023-07-13T02:29:02;101463.28;;;26.77;100.00
77626;BME280;66794;43.764;10.436;2023-07-13T02:31:48;101469.19;;;26.90;100.00
77626;BME280;66794;43.764;10.436;2023-07-13T02:34:34;101466.47;;;27.00;100.00
77626;BME280;66794;43.764;10.436;2023-07-13T02:37:19;101466.00;;;27.09;100.00
77626;BME280;66794;43.764;10.436;2023-07-13T02:40:06;101454.84;;;27.04;100.00
77626;BME280;66794;43.764;10.436;2023-07-13T02:42:53;101460.94;;;27.06;100.00
77626;BME280;66794;43.764;10.436;2023-07-13T02:45:43;101450.34;;;26.97;100.00
77626;BME280;66794;43.764;10.436;2023-07-13T02:48:30;101472.09;;;26.68;100.00
77626;BME280;66794;43.764;10.436;2023-07-13T02:51:15;101464.47;;;26.91;100.00
77626;BME280;66794;43.764;10.436;2023-07-13T02:54:03;101465.53;;;26.85;100.00
77626;BME280;66794;43.764;10.436;2023-07-13T02:56:49;101447.69;;;26.70;100.00
77626;BME280;66794;43.764;10.436;2023-07-13T02:59:35;101441.56;;;26.73;100.00
77626;BME280;66794;43.764;10.436;2023-07-13T03:02:20;101458.56;;;26.77;100.00
77626;BME280;66794;43.764;10.436;2023-07-13T03:05:06;101449.53;;;26.60;100.00
77626;BME280;66794;43.764;10.436;2023-07-13T03:07:53;101451.84;;;26.41;100.00
77626;BME280;66794;43.764;10.436;2023-07-13T03:10:38;101464.03;;;26.67;100.00
77626;BME280;66794;43.764;10.436;2023-07-13T03:13:26;101472.09;;;26.68;100.00
77626;BME280;66794;43.764;10.436;2023-07-13T03:16:12;101442.75;;;26.45;100.00
77626;BME280;66794;43.764;10.436;2023-07-13T03:18:58;101467.72;;;26.78;100.00
77626;BME280;66794;43.764;10.436;2023-07-13T03:21:44;101462.91;;;26.36;100.00
77626;BME280;66794;43.764;10.436;2023-07-13T03:24:29;101466.09;;;26.44;100.00
77626;BME280;66794;43.764;10.436;2023-07-13T03:27:17;101469.78;;;26.55;100.00
77626;BME280;66794;43.764;10.436;2023-07-13T03:30:04;101471.72;;;26.55;100.00
77626;BME280;66794;43.764;10.436;2023-07-13T03:32:50;101508.16;;;26.63;100.00
77626;BME280;66794;43.764;10.436;2023-07-13T03:35:40;101481.22;;;26.64;100.00
77626;BME280;66794;43.764;10.436;2023-07-13T03:38:26;101495.13;;;26.64;100.00
77626;BME280;66794;43.764;10.436;2023-07-13T03:41:12;101478.00;;;26.77;100.00
77626;BME280;66794;43.764;10.436;2023-07-13T03:43:57;101495.06;;;26.96;100.00
77626;BME280;66794;43.764;10.436;2023-07-13T03:46:43;101493.25;;;27.12;100.00
77626;BME280;66794;43.764;10.436;2023-07-13T03:49:29;101492.31;;;27.01;100.00
77626;BME280;66794;43.764;10.436;2023-07-13T03:52:15;101503.38;;;26.91;100.00
77626;BME280;66794;43.764;10.436;2023-07-13T03:55:01;101495.38;;;26.99;100.00
77626;BME280;66794;43.764;10.436;2023-07-13T03:57:47;101496.63;;;27.14;100.00
77626;BME280;66794;43.764;10.436;2023-07-13T04:00:33;101485.56;;;27.24;100.00
77626;BME280;66794;43.764;10.436;2023-07-13T04:03:19;101443.78;;;27.09;100.00
77626;BME280;66794;43.764;10.436;2023-07-13T04:06:06;101495.94;;;27.01;100.00
77626;BME280;66794;43.764;10.436;2023-07-13T04:09:00;101478.47;;;27.06;100.00
77626;BME280;66794;43.764;10.436;2023-07-13T04:11:46;101469.91;;;27.13;100.00
77626;BME280;66794;43.764;10.436;2023-07-13T04:14:31;101479.31;;;27.07;100.00
77626;BME280;66794;43.764;10.436;2023-07-13T04:17:18;101474.59;;;27.07;100.00
77626;BME280;66794;43.764;10.436;2023-07-13T04:20:05;101481.72;;;26.93;100.00
77626;BME280;66794;43.764;10.436;2023-07-13T04:22:51;101475.75;;;27.11;100.00
77626;BME280;66794;43.764;10.436;2023-07-13T04:25:38;101483.03;;;27.22;100.00
77626;BME280;66794;43.764;10.436;2023-07-13T04:28:25;101473.25;;;27.10;100.00
77626;BME280;66794;43.764;10.436;2023-07-13T04:31:11;101456.91;;;27.23;100.00
77626;BME280;66794;43.764;10.436;2023-07-13T04:33:57;101460.53;;;27.24;100.00
77626;BME280;66794;43.764;10.436;2023-07-13T04:36:43;101459.13;;;27.21;100.00
77626;BME280;66794;43.764;10.436;2023-07-13T04:39:28;101474.97;;;27.21;100.00
77626;BME280;66794;43.764;10.436;2023-07-13T04:42:14;101459.44;;;27.25;100.00
77626;BME280;66794;43.764;10.436;2023-07-13T04:45:00;101407.72;;;27.34;100.00
77626;BME280;66794;43.764;10.436;2023-07-13T04:47:46;101429.75;;;27.41;100.00
77626;BME280;66794;43.764;10.436;2023-07-13T04:50:31;101501.63;;;27.17;100.00
77626;BME280;66794;43.764;10.436;2023-07-13T04:53:17;101487.22;;;27.20;100.00
77626;BME280;66794;43.764;10.436;2023-07-13T04:56:03;101485.56;;;27.29;100.00
77626;BME280;66794;43.764;10.436;2023-07-13T04:58:49;101483.28;;;27.16;100.00
77626;BME280;66794;43.764;10.436;2023-07-13T05:01:35;101485.25;;;27.20;100.00
77626;BME280;66794;43.764;10.436;2023-07-13T05:04:20;101496.94;;;27.22;100.00
77626;BME280;66794;43.764;10.436;2023-07-13T05:07:06;101435.50;;;27.24;100.00
77626;BME280;66794;43.764;10.436;2023-07-13T05:09:52;101462.84;;;27.47;100.00
77626;BME280;66794;43.764;10.436;2023-07-13T05:12:38;101491.56;;;27.58;100.00
77626;BME280;66794;43.764;10.436;2023-07-13T05:15:23;101460.72;;;27.70;100.00
77626;BME280;66794;43.764;10.436;2023-07-13T05:18:10;101486.66;;;27.81;100.00
77626;BME280;66794;43.764;10.436;2023-07-13T05:21:01;101476.00;;;27.62;100.00
77626;BME280;66794;43.764;10.436;2023-07-13T05:23:48;101487.34;;;27.56;100.00
77626;BME280;66794;43.764;10.436;2023-07-13T05:26:33;101461.31;;;27.77;100.00
77626;BME280;66794;43.764;10.436;2023-07-13T05:29:20;101444.63;;;27.82;100.00
77626;BME280;66794;43.764;10.436;2023-07-13T05:32:06;101456.56;;;27.77;100.00
77626;BME280;66794;43.764;10.436;2023-07-13T05:34:52;101426.25;;;27.86;100.00
77626;BME280;66794;43.764;10.436;2023-07-13T05:37:38;101407.91;;;27.90;100.00
77626;BME280;66794;43.764;10.436;2023-07-13T05:40:24;101462.72;;;27.85;100.00
77626;BME280;66794;43.764;10.436;2023-07-13T05:43:10;101510.06;;;27.90;100.00
77626;BME280;66794;43.764;10.436;2023-07-13T05:45:57;101494.13;;;27.70;100.00
77626;BME280;66794;43.764;10.436;2023-07-13T05:48:42;101498.44;;;27.45;100.00
77626;BME280;66794;43.764;10.436;2023-07-13T05:51:29;101494.00;;;27.49;100.00
77626;BME280;66794;43.764;10.436;2023-07-13T05:54:15;101476.31;;;27.71;100.00
77626;BME280;66794;43.764;10.436;2023-07-13T05:57:00;101459.88;;;27.69;100.00
77626;BME280;66794;43.764;10.436;2023-07-13T05:59:46;101453.22;;;27.70;100.00
77626;BME280;66794;43.764;10.436;2023-07-13T06:02:32;101488.50;;;27.60;100.00
77626;BME280;66794;43.764;10.436;2023-07-13T06:05:18;101511.34;;;27.67;100.00
77626;BME280;66794;43.764;10.436;2023-07-13T06:08:04;101513.66;;;27.80;100.00
77626;BME280;66794;43.764;10.436;2023-07-13T06:10:50;101511.41;;;27.82;100.00
77626;BME280;66794;43.764;10.436;2023-07-13T06:13:36;101518.59;;;27.68;100.00
77626;BME280;66794;43.764;10.436;2023-07-13T06:16:22;101499.94;;;27.63;100.00
77626;BME280;66794;43.764;10.436;2023-07-13T06:19:08;101537.78;;;27.69;100.00
77626;BME280;66794;43.764;10.436;2023-07-13T06:21:53;101495.22;;;27.69;100.00
77626;BME280;66794;43.764;10.436;2023-07-13T06:24:39;101493.59;;;27.83;100.00
77626;BME280;66794;43.764;10.436;2023-07-13T06:27:25;101506.41;;;27.79;100.00
77626;BME280;66794;43.764;10.436;2023-07-13T06:30:11;101500.84;;;27.79;100.00
77626;BME280;66794;43.764;10.436;2023-07-13T06:32:57;101527.31;;;27.92;100.00
77626;BME280;66794;43.764;10.436;2023-07-13T06:35:43;101534.31;;;28.10;100.00
77626;BME280;66794;43.764;10.436;2023-07-13T06:38:29;101528.16;;;27.92;100.00
77626;BME280;66794;43.764;10.436;2023-07-13T06:41:14;101520.34;;;27.79;100.00
77626;BME280;66794;43.764;10.436;2023-07-13T06:44:00;101544.28;;;27.80;100.00
77626;BME280;66794;43.764;10.436;2023-07-13T06:46:46;101547.69;;;28.02;100.00
77626;BME280;66794;43.764;10.436;2023-07-13T06:49:32;101521.50;;;27.98;100.00
77626;BME280;66794;43.764;10.436;2023-07-13T06:52:17;101543.56;;;28.30;100.00
77626;BME280;66794;43.764;10.436;2023-07-13T06:55:03;101517.09;;;28.18;100.00
77626;BME280;66794;43.764;10.436;2023-07-13T06:57:49;101537.50;;;28.44;100.00
77626;BME280;66794;43.764;10.436;2023-07-13T07:00:35;101521.88;;;28.63;100.00
77626;BME280;66794;43.764;10.436;2023-07-13T07:03:21;101502.94;;;28.70;100.00
77626;BME280;66794;43.764;10.436;2023-07-13T07:06:20;101528.53;;;28.31;100.00
77626;BME280;66794;43.764;10.436;2023-07-13T07:09:08;101519.09;;;28.48;100.00
77626;BME280;66794;43.764;10.436;2023-07-13T07:11:54;101513.53;;;28.83;100.00
77626;BME280;66794;43.764;10.436;2023-07-13T07:14:40;101496.81;;;28.83;100.00
77626;BME280;66794;43.764;10.436;2023-07-13T07:17:26;101502.94;;;28.96;100.00
77626;BME280;66794;43.764;10.436;2023-07-13T07:19:52;101502.91;;;28.91;100.00
77626;BME280;66794;43.764;10.436;2023-07-13T07:22:20;101518.00;;;29.00;100.00
77626;BME280;66794;43.764;10.436;2023-07-13T07:24:45;101498.19;;;29.06;100.00
77626;BME280;66794;43.764;10.436;2023-07-13T07:27:10;101491.44;;;29.28;100.00
77626;BME280;66794;43.764;10.436;2023-07-13T07:29:36;101518.28;;;28.93;100.00
77626;BME280;66794;43.764;10.436;2023-07-13T07:32:01;101521.34;;;28.97;100.00
77626;BME280;66794;43.764;10.436;2023-07-13T07:34:27;101532.19;;;29.08;100.00
77626;BME280;66794;43.764;10.436;2023-07-13T07:36:53;101524.09;;;28.87;100.00
77626;BME280;66794;43.764;10.436;2023-07-13T07:39:19;101548.66;;;28.85;100.00
77626;BME280;66794;43.764;10.436;2023-07-13T07:41:44;101544.19;;;28.68;100.00
77626;BME280;66794;43.764;10.436;2023-07-13T07:44:10;101562.03;;;28.62;100.00
77626;BME280;66794;43.764;10.436;2023-07-13T07:46:35;101574.03;;;28.73;100.00
77626;BME280;66794;43.764;10.436;2023-07-13T07:49:01;101566.78;;;28.82;100.00
77626;BME280;66794;43.764;10.436;2023-07-13T07:51:27;101553.97;;;28.71;100.00
77626;BME280;66794;43.764;10.436;2023-07-13T07:53:52;101565.38;;;28.74;100.00
77626;BME280;66794;43.764;10.436;2023-07-13T07:56:18;101536.38;;;28.65;100.00
77626;BME280;66794;43.764;10.436;2023-07-13T07:58:43;101555.63;;;28.72;100.00
77626;BME280;66794;43.764;10.436;2023-07-13T08:01:09;101574.03;;;28.83;100.00
77626;BME280;66794;43.764;10.436;2023-07-13T08:03:35;101584.34;;;28.77;100.00
77626;BME280;66794;43.764;10.436;2023-07-13T08:06:01;101552.56;;;28.63;100.00
77626;BME280;66794;43.764;10.436;2023-07-13T08:08:26;101541.69;;;28.56;100.00
77626;BME280;66794;43.764;10.436;2023-07-13T08:10:53;101533.03;;;28.58;100.00
77626;BME280;66794;43.764;10.436;2023-07-13T08:13:19;101540.00;;;28.35;100.00
77626;BME280;66794;43.764;10.436;2023-07-13T08:15:44;101571.47;;;28.41;100.00
77626;BME280;66794;43.764;10.436;2023-07-13T08:18:10;101548.34;;;28.35;100.00
77626;BME280;66794;43.764;10.436;2023-07-13T08:20:39;101550.59;;;28.59;100.00
77626;BME280;66794;43.764;10.436;2023-07-13T08:23:05;101551.16;;;28.76;100.00
77626;BME280;66794;43.764;10.436;2023-07-13T08:25:31;101556.47;;;28.77;100.00
77626;BME280;66794;43.764;10.436;2023-07-13T08:27:56;101558.41;;;29.02;100.00
77626;BME280;66794;43.764;10.436;2023-07-13T08:30:22;101561.75;;;28.89;100.00
77626;BME280;66794;43.764;10.436;2023-07-13T08:32:48;101561.75;;;28.69;100.00
77626;BME280;66794;43.764;10.436;2023-07-13T08:35:13;101546.41;;;28.51;100.00
77626;BME280;66794;43.764;10.436;2023-07-13T08:37:39;101549.50;;;28.54;100.00
77626;BME280;66794;43.764;10.436;2023-07-13T08:40:05;101563.97;;;28.62;100.00
77626;BME280;66794;43.764;10.436;2023-07-13T08:42:42;101576.81;;;28.68;100.00
77626;BME280;66794;43.764;10.436;2023-07-13T08:45:25;101579.59;;;28.68;100.00
77626;BME280;66794;43.764;10.436;2023-07-13T08:47:58;101579.06;;;28.71;100.00
77626;BME280;66794;43.764;10.436;2023-07-13T08:50:30;101569.28;;;28.68;100.00
77626;BME280;66794;43.764;10.436;2023-07-13T08:53:01;101571.78;;;28.65;100.00
77626;BME280;66794;43.764;10.436;2023-07-13T08:55:31;101585.44;;;28.81;100.00
77626;BME280;66794;43.764;10.436;2023-07-13T08:58:11;101577.94;;;28.77;100.00
77626;BME280;66794;43.764;10.436;2023-07-13T09:00:46;101602.75;;;29.14;100.00
77626;BME280;66794;43.764;10.436;2023-07-13T09:03:23;101602.19;;;29.12;100.00
77626;BME280;66794;43.764;10.436;2023-07-13T09:05:54;101604.44;;;28.95;100.00
77626;BME280;66794;43.764;10.436;2023-07-13T09:11:59;101597.44;;;28.72;100.00
77626;BME280;66794;43.764;10.436;2023-07-13T09:16:35;101615.88;;;28.98;100.00
77626;BME280;66794;43.764;10.436;2023-07-13T09:19:06;101623.69;;;28.96;100.00
77626;BME280;66794;43.764;10.436;2023-07-13T09:21:37;101637.91;;;29.25;100.00
77626;BME280;66794;43.764;10.436;2023-07-13T09:30:17;101648.72;;;28.91;100.00
77626;BME280;66794;43.764;10.436;2023-07-13T09:32:52;101664.09;;;28.89;100.00
77626;BME280;66794;43.764;10.436;2023-07-13T09:35:29;101682.44;;;28.74;100.00
77626;BME280;66794;43.764;10.436;2023-07-13T09:38:10;101676.88;;;28.69;100.00
77626;BME280;66794;43.764;10.436;2023-07-13T09:43:15;101671.91;;;28.97;100.00
77626;BME280;66794;43.764;10.436;2023-07-13T09:45:45;101670.19;;;28.80;100.00
77626;BME280;66794;43.764;10.436;2023-07-13T09:48:13;101678.47;;;28.45;100.00
77626;BME280;66794;43.764;10.436;2023-07-13T09:50:40;101669.19;;;28.29;100.00
77626;BME280;66794;43.764;10.436;2023-07-13T09:53:15;101667.22;;;28.24;100.00
77626;BME280;66794;43.764;10.436;2023-07-13T09:55:43;101660.06;;;28.34;100.00
77626;BME280;66794;43.764;10.436;2023-07-13T09:58:21;101655.34;;;28.39;100.00
77626;BME280;66794;43.764;10.436;2023-07-13T10:00:59;101697.19;;;28.54;100.00
77626;BME280;66794;43.764;10.436;2023-07-13T10:03:33;101675.75;;;28.60;100.00
77626;BME280;66794;43.764;10.436;2023-07-13T10:06:17;101669.34;;;28.75;100.00
77626;BME280;66794;43.764;10.436;2023-07-13T10:08:46;101663.47;;;28.61;100.00
77626;BME280;66794;43.764;10.436;2023-07-13T10:11:21;101686.63;;;28.67;100.00
77626;BME280;66794;43.764;10.436;2023-07-13T10:14:27;101688.88;;;28.85;100.00
77626;BME280;66794;43.764;10.436;2023-07-13T10:16:52;101677.25;;;28.98;100.00
77626;BME280;66794;43.764;10.436;2023-07-13T10:19:29;101676.63;;;28.91;100.00
77626;BME280;66794;43.764;10.436;2023-07-13T10:22:03;101667.97;;;29.79;100.00
77626;BME280;66794;43.764;10.436;2023-07-13T10:24:39;101666.34;;;29.17;100.00
77626;BME280;66794;43.764;10.436;2023-07-13T10:27:20;101662.97;;;29.51;100.00
77626;BME280;66794;43.764;10.436;2023-07-13T10:30:00;101662.69;;;29.63;100.00
77626;BME280;66794;43.764;10.436;2023-07-13T10:32:27;101649.53;;;29.83;100.00
77626;BME280;66794;43.764;10.436;2023-07-13T10:34:53;101645.03;;;30.57;100.00
77626;BME280;66794;43.764;10.436;2023-07-13T10:37:23;101626.59;;;30.56;100.00
77626;BME280;66794;43.764;10.436;2023-07-13T10:39:52;101627.09;;;31.03;100.00
77626;BME280;66794;43.764;10.436;2023-07-13T10:42:40;101622.75;;;31.21;100.00
77626;BME280;66794;43.764;10.436;2023-07-13T10:45:18;101621.72;;;31.11;100.00
77626;BME280;66794;43.764;10.436;2023-07-13T10:47:45;101615.09;;;31.02;100.00
77626;BME280;66794;43.764;10.436;2023-07-13T10:50:30;101619.03;;;31.30;100.00
77626;BME280;66794;43.764;10.436;2023-07-13T10:53:38;101613.25;;;31.51;100.00
77626;BME280;66794;43.764;10.436;2023-07-13T10:56:05;101608.72;;;31.79;100.00
77626;BME280;66794;43.764;10.436;2023-07-13T10:58:38;101613.44;;;30.57;100.00
77626;BME280;66794;43.764;10.436;2023-07-13T11:03:59;101601.78;;;31.18;100.00
77626;BME280;66794;43.764;10.436;2023-07-13T11:08:56;101578.81;;;31.50;100.00
77626;BME280;66794;43.764;10.436;2023-07-13T11:18:51;101574.59;;;31.77;100.00
77626;BME280;66794;43.764;10.436;2023-07-13T11:21:26;101574.66;;;31.72;100.00
77626;BME280;66794;43.764;10.436;2023-07-13T11:24:04;101574.81;;;32.80;100.00
77626;BME280;66794;43.764;10.436;2023-07-13T11:31:43;101579.28;;;31.57;100.00
77626;BME280;66794;43.764;10.436;2023-07-13T11:34:30;101574.81;;;30.98;100.00
77626;BME280;66794;43.764;10.436;2023-07-13T11:36:58;101594.94;;;31.05;100.00
77626;BME280;66794;43.764;10.436;2023-07-13T11:39:39;101576.53;;;31.28;100.00
77626;BME280;66794;43.764;10.436;2023-07-13T11:42:12;101577.88;;;31.02;100.00
77626;BME280;66794;43.764;10.436;2023-07-13T11:44:49;101582.81;;;30.42;100.00
77626;BME280;66794;43.764;10.436;2023-07-13T11:47:18;101591.59;;;30.64;100.00
77626;BME280;66794;43.764;10.436;2023-07-13T11:49:50;101566.69;;;30.68;100.00
77626;BME280;66794;43.764;10.436;2023-07-13T11:52:21;101581.63;;;30.87;100.00
77626;BME280;66794;43.764;10.436;2023-07-13T11:54:55;101574.03;;;31.27;100.00
77626;BME280;66794;43.764;10.436;2023-07-13T11:57:33;101575.34;;;30.71;100.00
77626;BME280;66794;43.764;10.436;2023-07-13T12:00:03;101576.16;;;30.72;100.00
77626;BME280;66794;43.764;10.436;2023-07-13T12:02:45;101579.09;;;30.90;100.00
77626;BME280;66794;43.764;10.436;2023-07-13T12:05:13;101561.50;;;31.48;100.00
77626;BME280;66794;43.764;10.436;2023-07-13T12:07:40;101570.63;;;31.83;100.00
77626;BME280;66794;43.764;10.436;2023-07-13T12:13:04;101563.69;;;32.18;100.00
77626;BME280;66794;43.764;10.436;2023-07-13T12:15:41;101541.34;;;32.32;100.00
77626;BME280;66794;43.764;10.436;2023-07-13T12:18:18;101547.13;;;32.40;100.00
77626;BME280;66794;43.764;10.436;2023-07-13T12:20:44;101530.22;;;33.11;100.00
77626;BME280;66794;43.764;10.436;2023-07-13T12:23:30;101557.63;;;32.11;100.00
77626;BME280;66794;43.764;10.436;2023-07-13T12:25:57;101534.03;;;32.36;100.00
77626;BME280;66794;43.764;10.436;2023-07-13T12:28:38;101534.91;;;32.83;100.00
77626;BME280;66794;43.764;10.436;2023-07-13T12:31:06;101544.06;;;33.07;100.00
77626;BME280;66794;43.764;10.436;2023-07-13T12:33:33;101536.06;;;32.49;100.00
77626;BME280;66794;43.764;10.436;2023-07-13T12:36:05;101522.03;;;32.11;100.00
77626;BME280;66794;43.764;10.436;2023-07-13T12:38:31;101534.66;;;32.65;100.00
77626;BME280;66794;43.764;10.436;2023-07-13T12:40:57;101526.75;;;33.46;100.00
77626;BME280;66794;43.764;10.436;2023-07-13T12:43:24;101527.00;;;33.04;100.00
77626;BME280;66794;43.764;10.436;2023-07-13T12:46:21;101526.84;;;33.28;100.00
77626;BME280;66794;43.764;10.436;2023-07-13T12:48:51;101526.31;;;33.12;100.00
77626;BME280;66794;43.764;10.436;2023-07-13T12:51:20;101520.91;;;32.83;100.00
77626;BME280;66794;43.764;10.436;2023-07-13T12:53:56;101533.66;;;33.08;100.00
77626;BME280;66794;43.764;10.436;2023-07-13T12:56:24;101531.44;;;32.72;100.00
77626;BME280;66794;43.764;10.436;2023-07-13T12:58:57;101522.97;;;33.23;100.00
77626;BME280;66794;43.764;10.436;2023-07-13T13:01:27;101517.25;;;33.84;100.00
77626;BME280;66794;43.764;10.436;2023-07-13T13:03:54;101501.28;;;31.93;100.00
77626;BME280;66794;43.764;10.436;2023-07-13T13:06:25;101492.03;;;32.31;100.00
77626;BME280;66794;43.764;10.436;2023-07-13T13:08:58;101536.34;;;32.99;100.00
77626;BME280;66794;43.764;10.436;2023-07-13T13:11:26;101533.69;;;32.56;100.00
77626;BME280;66794;43.764;10.436;2023-07-13T13:13:52;101527.50;;;32.73;100.00
77626;BME280;66794;43.764;10.436;2023-07-13T13:16:30;101529.06;;;32.98;100.00
77626;BME280;66794;43.764;10.436;2023-07-13T13:18:58;101526.16;;;33.03;100.00
77626;BME280;66794;43.764;10.436;2023-07-13T13:21:25;101521.09;;;33.33;100.00
77626;BME280;66794;43.764;10.436;2023-07-13T13:23:51;101505.47;;;32.99;100.00
77626;BME280;66794;43.764;10.436;2023-07-13T13:26:18;101525.56;;;33.20;100.00
77626;BME280;66794;43.764;10.436;2023-07-13T13:28:44;101517.91;;;33.94;100.00
77626;BME280;66794;43.764;10.436;2023-07-13T13:31:11;101509.69;;;33.29;100.00
77626;BME280;66794;43.764;10.436;2023-07-13T13:33:45;101510.09;;;33.36;100.00
77626;BME280;66794;43.764;10.436;2023-07-13T13:36:19;101518.91;;;32.83;100.00
77626;BME280;66794;43.764;10.436;2023-07-13T13:38:46;101526.88;;;32.25;100.00
77626;BME280;66794;43.764;10.436;2023-07-13T13:41:13;101521.38;;;33.04;100.00
77626;BME280;66794;43.764;10.436;2023-07-13T13:43:41;101512.38;;;33.34;100.00
77626;BME280;66794;43.764;10.436;2023-07-13T13:46:19;101505.31;;;33.64;100.00
77626;BME280;66794;43.764;10.436;2023-07-13T13:48:46;101514.19;;;33.44;100.00
77626;BME280;66794;43.764;10.436;2023-07-13T13:51:21;101511.34;;;33.58;100.00
77626;BME280;66794;43.764;10.436;2023-07-13T13:53:47;101510.63;;;33.93;100.00
77626;BME280;66794;43.764;10.436;2023-07-13T13:56:18;101505.22;;;33.42;100.00
77626;BME280;66794;43.764;10.436;2023-07-13T13:58:44;101521.53;;;32.47;100.00
77626;BME280;66794;43.764;10.436;2023-07-13T14:01:20;101511.00;;;33.87;100.00
77626;BME280;66794;43.764;10.436;2023-07-13T14:03:47;101491.91;;;33.34;100.00
77626;BME280;66794;43.764;10.436;2023-07-13T14:06:15;101508.31;;;33.27;100.00